createdAt,value
2019-04-27T00:01:57.579Z,35.90
2019-04-27T00:04:48.640Z,37.70
2019-04-27T00:07:34.379Z,41.20
2019-04-27T00:10:13.747Z,41.20
2019-04-27T00:12:43.476Z,41.67
2019-04-27T00:15:14.835Z,40.17
2019-04-27T00:17:58.350Z,43.20
2019-04-27T00:20:31.005Z,43.50
2019-04-27T00:23:03.347Z,40.50
2019-04-27T00:25:33.233Z,41.20
2019-04-27T00:28:03.858Z,41.23
2019-04-27T00:30:35.617Z,39.40
2019-04-27T00:33:05.584Z,38.63
2019-04-27T00:35:36.889Z,42.83
2019-04-27T00:38:20.142Z,38.77
2019-04-27T00:40:57.466Z,42.43
2019-04-27T00:43:27.031Z,40.60
2019-04-27T00:45:56.575Z,39.63
2019-04-27T00:48:26.208Z,41.70
2019-04-27T00:50:55.751Z,40.40
2019-04-27T00:53:25.427Z,40.80
2019-04-27T00:55:56.791Z,42.60
2019-04-27T00:58:28.384Z,40.17
2019-04-27T01:01:08.644Z,40.10
2019-04-27T01:03:45.275Z,40.40
2019-04-27T01:06:15.329Z,41.90
2019-04-27T01:08:45.056Z,40.23
2019-04-27T01:11:14.892Z,42.40
2019-04-27T01:13:44.897Z,43.90
2019-04-27T01:16:17.432Z,42.10
2019-04-27T01:18:46.069Z,38.73
2019-04-27T01:21:15.626Z,39.30
2019-04-27T01:23:46.268Z,42.47
2019-04-27T01:26:32.815Z,40.80
2019-04-27T01:29:04.180Z,38.47
2019-04-27T01:31:33.896Z,39.47
2019-04-27T01:34:03.432Z,39.13
2019-04-27T01:36:33.104Z,40.20
2019-04-27T01:39:04.347Z,38.20
2019-04-27T01:41:34.063Z,39.27
2019-04-27T01:44:03.940Z,40.50
2019-04-27T01:46:33.554Z,40.97
2019-04-27T01:49:04.051Z,42.17
2019-04-27T01:51:33.719Z,39.70
2019-04-27T01:54:05.362Z,37.93
2019-04-27T01:56:35.146Z,41.93
2019-04-27T01:59:04.828Z,41.07
2019-04-27T02:01:42.332Z,40.00
2019-04-27T02:04:19.532Z,39.00
2019-04-27T02:06:53.712Z,40.33
2019-04-27T02:09:24.056Z,41.13
2019-04-27T02:11:53.711Z,39.63
2019-04-27T02:14:23.243Z,39.13
2019-04-27T02:16:53.032Z,41.60
2019-04-27T02:19:22.564Z,39.17
2019-04-27T02:21:52.284Z,39.60
2019-04-27T02:24:21.824Z,36.07
2019-04-27T02:26:51.636Z,41.77
2019-04-27T02:29:26.043Z,41.50
2019-04-27T02:32:10.484Z,43.10
2019-04-27T02:34:57.223Z,41.07
2019-04-27T02:37:26.872Z,39.60
2019-04-27T02:39:56.399Z,39.73
2019-04-27T02:42:29.625Z,40.73
2019-04-27T02:44:59.832Z,40.20
2019-04-27T02:47:29.632Z,39.77
2019-04-27T02:50:00.622Z,43.70
2019-04-27T02:52:32.191Z,38.90
2019-04-27T02:55:01.723Z,41.63
2019-04-27T02:57:31.258Z,43.10
2019-04-27T03:00:00.897Z,39.50
2019-04-27T03:02:34.766Z,40.47
2019-04-27T03:05:19.554Z,46.23
2019-04-27T03:07:50.340Z,41.10
2019-04-27T03:10:20.007Z,43.33
2019-04-27T03:12:51.367Z,44.97
2019-04-27T03:15:23.497Z,43.53
2019-04-27T03:18:10.505Z,42.90
2019-04-27T03:20:41.668Z,42.83
2019-04-27T03:23:11.775Z,42.50
2019-04-27T03:25:43.072Z,42.90
2019-04-27T03:28:13.839Z,43.30
2019-04-27T03:30:44.049Z,41.73
2019-04-27T03:33:13.745Z,41.13
2019-04-27T03:35:43.932Z,41.83
2019-04-27T03:38:14.138Z,40.83
2019-04-27T03:40:43.662Z,43.73
2019-04-27T03:43:20.019Z,43.10
2019-04-27T03:45:51.765Z,41.87
2019-04-27T03:48:20.683Z,37.20
2019-04-27T03:50:51.844Z,41.47
2019-04-27T03:53:23.355Z,43.90
2019-04-27T03:55:54.670Z,43.57
2019-04-27T03:58:40.820Z,43.00
2019-04-27T04:01:10.709Z,44.33
2019-04-27T04:03:40.421Z,41.27
2019-04-27T04:06:10.804Z,42.17
2019-04-27T04:08:40.582Z,39.40
2019-04-27T04:11:30.392Z,42.37
2019-04-27T04:14:01.707Z,40.77
2019-04-27T04:16:32.879Z,43.27
2019-04-27T04:19:04.064Z,39.67
2019-04-27T04:21:33.590Z,40.80
2019-04-27T04:24:03.127Z,37.60
2019-04-27T04:26:33.249Z,43.37
2019-04-27T04:29:03.041Z,44.40
2019-04-27T04:31:33.638Z,41.87
2019-04-27T04:34:03.589Z,44.63
2019-04-27T04:36:33.408Z,42.90
2019-04-27T04:39:03.945Z,43.73
2019-04-27T04:41:47.201Z,41.43
2019-04-27T04:44:35.151Z,40.83
2019-04-27T04:47:07.126Z,42.10
2019-04-27T04:49:36.734Z,43.57
2019-04-27T04:52:06.479Z,44.03
2019-04-27T04:54:36.676Z,47.40
2019-04-27T04:57:06.284Z,47.40
2019-04-27T04:59:35.817Z,45.63
2019-04-27T05:02:05.532Z,40.90
2019-04-27T05:04:35.231Z,32.23
2019-04-27T05:07:04.773Z,29.60
2019-04-27T05:09:34.447Z,30.67
2019-04-27T05:12:04.170Z,28.23
2019-04-27T05:14:33.701Z,28.10
2019-04-27T05:17:03.387Z,26.00
2019-04-27T05:19:32.927Z,25.80
2019-04-27T05:22:02.466Z,24.30
2019-04-27T05:24:32.012Z,23.33
2019-04-27T05:27:01.716Z,23.57
2019-04-27T05:29:31.412Z,21.80
2019-04-27T05:32:01.060Z,23.80
2019-04-27T05:34:30.609Z,22.50
2019-04-27T05:37:01.118Z,21.60
2019-04-27T05:39:31.004Z,22.63
2019-04-27T05:42:00.824Z,22.70
2019-04-27T05:44:45.755Z,19.63
2019-04-27T05:47:18.964Z,20.20
2019-04-27T05:49:49.100Z,19.13
2019-04-27T05:52:29.322Z,19.67
2019-04-27T05:54:59.280Z,19.83
2019-04-27T05:57:31.309Z,20.93
2019-04-27T06:00:02.053Z,20.30
2019-04-27T06:02:32.059Z,18.80
2019-04-27T06:05:01.597Z,20.37
2019-04-27T06:07:31.271Z,19.40
2019-04-27T06:10:00.834Z,18.57
2019-04-27T06:12:30.467Z,18.40
2019-04-27T06:15:00.285Z,21.50
2019-04-27T06:17:30.251Z,20.40
2019-04-27T06:20:00.021Z,19.10
2019-04-27T06:22:29.551Z,19.70
2019-04-27T06:25:00.071Z,19.60
2019-04-27T06:27:30.928Z,19.60
2019-04-27T06:30:00.809Z,18.50
2019-04-27T06:32:30.782Z,18.13
2019-04-27T06:35:00.540Z,17.67
2019-04-27T06:37:30.272Z,16.43
2019-04-27T06:40:00.013Z,17.53
2019-04-27T06:42:30.006Z,21.57
2019-04-27T06:45:00.028Z,20.40
2019-04-27T06:47:30.011Z,18.07
2019-04-27T06:49:59.481Z,20.67
2019-04-27T06:52:29.372Z,15.73
2019-04-27T06:55:00.621Z,17.40
2019-04-27T06:57:30.451Z,18.57
2019-04-27T06:59:59.912Z,21.70
2019-04-27T07:02:29.477Z,19.17
2019-04-27T07:04:59.298Z,21.10
2019-04-27T07:07:29.588Z,18.40
2019-04-27T07:09:59.451Z,20.17
2019-04-27T07:12:29.102Z,17.80
2019-04-27T07:14:59.248Z,16.83
2019-04-27T07:17:29.361Z,14.70
2019-04-27T07:19:59.606Z,16.30
2019-04-27T07:22:30.006Z,18.17
2019-04-27T07:24:59.978Z,17.77
2019-04-27T07:27:29.519Z,19.77
2019-04-27T07:30:01.508Z,18.93
2019-04-27T07:32:30.351Z,15.47
2019-04-27T07:35:00.163Z,14.23
2019-04-27T07:37:29.832Z,12.93
2019-04-27T07:39:59.639Z,12.27
2019-04-27T07:42:30.239Z,11.63
2019-04-27T07:45:09.368Z,10.77
2019-04-27T07:47:41.191Z,11.20
2019-04-27T07:50:10.941Z,11.33
2019-04-27T07:52:40.637Z,11.43
2019-04-27T07:55:10.569Z,9.57
2019-04-27T07:57:40.292Z,7.90
2019-04-27T08:00:11.500Z,10.13
2019-04-27T08:02:41.034Z,7.83
2019-04-27T08:05:10.634Z,8.20
2019-04-27T08:07:40.259Z,7.57
2019-04-27T08:10:10.241Z,8.00
2019-04-27T08:12:39.836Z,6.83
2019-04-27T08:15:09.438Z,8.50
2019-04-27T08:17:42.596Z,8.90
2019-04-27T08:20:11.443Z,9.70
2019-04-27T08:22:41.080Z,7.60
2019-04-27T08:25:10.851Z,8.10
2019-04-27T08:27:51.107Z,8.30
2019-04-27T08:30:25.552Z,6.53
2019-04-27T08:32:56.933Z,7.20
2019-04-27T08:35:26.641Z,7.47
2019-04-27T08:37:56.347Z,6.07
2019-04-27T08:40:25.952Z,5.90
2019-04-27T08:42:55.777Z,5.67
2019-04-27T08:45:25.492Z,6.30
2019-04-27T08:47:55.287Z,5.10
2019-04-27T08:50:24.824Z,6.50
2019-04-27T08:52:54.623Z,5.80
2019-04-27T08:55:24.314Z,6.07
2019-04-27T08:57:54.018Z,6.40
2019-04-27T09:00:23.547Z,6.53
2019-04-27T09:02:53.076Z,6.60
2019-04-27T09:05:25.738Z,5.00
2019-04-27T09:07:59.445Z,6.20
2019-04-27T09:10:46.445Z,4.60
2019-04-27T09:13:19.499Z,5.27
2019-04-27T09:16:07.256Z,4.70
2019-04-27T09:18:36.715Z,5.20
2019-04-27T09:21:06.257Z,4.30
2019-04-27T09:23:35.779Z,4.30
2019-04-27T09:26:05.314Z,4.40
2019-04-27T09:28:34.977Z,4.50
2019-04-27T09:31:05.187Z,6.13
2019-04-27T09:33:34.719Z,5.07
2019-04-27T09:36:06.020Z,5.53
2019-04-27T09:38:35.932Z,5.60
2019-04-27T09:41:07.223Z,5.03
2019-04-27T09:43:37.508Z,5.40
2019-04-27T09:46:07.408Z,3.87
2019-04-27T09:48:37.199Z,10.10
2019-04-27T09:51:06.980Z,6.23
2019-04-27T09:53:36.784Z,4.47
2019-04-27T09:56:06.516Z,3.60
2019-04-27T09:58:36.668Z,3.50
2019-04-27T10:01:06.700Z,3.93
2019-04-27T10:03:36.552Z,3.03
2019-04-27T10:06:06.383Z,2.73
2019-04-27T10:08:36.681Z,2.23
2019-04-27T10:11:06.464Z,4.00
2019-04-27T10:13:37.024Z,3.23
2019-04-27T10:16:06.819Z,3.60
2019-04-27T10:18:36.801Z,3.00
2019-04-27T10:21:06.515Z,4.20
2019-04-27T10:23:36.521Z,3.77
2019-04-27T10:26:07.272Z,4.60
2019-04-27T10:28:37.329Z,4.27
2019-04-27T10:31:07.256Z,4.30
2019-04-27T10:33:36.779Z,2.97
2019-04-27T10:36:08.441Z,3.80
2019-04-27T10:38:39.690Z,2.97
2019-04-27T10:41:09.461Z,3.50
2019-04-27T10:43:39.066Z,4.37
2019-04-27T10:46:08.611Z,4.23
2019-04-27T10:48:38.083Z,3.87
2019-04-27T10:51:07.618Z,3.90
2019-04-27T10:53:38.895Z,4.13
2019-04-27T10:56:08.362Z,4.00
2019-04-27T10:58:38.268Z,4.37
2019-04-27T11:01:08.952Z,4.83
2019-04-27T11:03:57.477Z,3.77
2019-04-27T11:06:29.118Z,3.80
2019-04-27T11:08:58.904Z,4.33
2019-04-27T11:11:28.600Z,4.83
2019-04-27T11:14:00.856Z,4.97
2019-04-27T11:16:29.584Z,6.50
2019-04-27T11:18:59.224Z,7.73
2019-04-27T11:21:28.748Z,5.40
2019-04-27T11:23:58.298Z,4.97
2019-04-27T11:26:27.815Z,5.60
2019-04-27T11:28:57.521Z,4.43
2019-04-27T11:31:27.234Z,4.50
2019-04-27T11:33:57.509Z,4.30
2019-04-27T11:36:28.801Z,3.60
2019-04-27T11:39:06.088Z,3.33
2019-04-27T11:41:35.612Z,4.20
2019-04-27T11:44:05.143Z,2.93
2019-04-27T11:46:34.768Z,2.70
2019-04-27T11:49:04.385Z,3.23
2019-04-27T11:51:33.901Z,3.83
2019-04-27T11:54:03.503Z,4.20
2019-04-27T11:56:33.195Z,5.00
2019-04-27T11:59:02.839Z,5.77
2019-04-27T12:01:32.554Z,4.50
2019-04-27T12:04:02.312Z,3.30
2019-04-27T12:06:32.132Z,3.10
2019-04-27T12:09:01.786Z,2.93
2019-04-27T12:11:31.591Z,2.90
2019-04-27T12:14:01.200Z,3.83
2019-04-27T12:16:30.655Z,3.60
2019-04-27T12:19:00.389Z,3.50
2019-04-27T12:21:29.909Z,3.60
2019-04-27T12:23:59.755Z,3.27
2019-04-27T12:26:34.003Z,2.50
2019-04-27T12:29:06.247Z,3.37
2019-04-27T12:31:37.764Z,6.57
2019-04-27T12:34:07.386Z,5.50
2019-04-27T12:36:37.075Z,3.00
2019-04-27T12:39:11.964Z,3.30
2019-04-27T12:41:41.615Z,2.97
2019-04-27T12:44:11.327Z,3.20
2019-04-27T12:46:41.019Z,4.20
2019-04-27T12:49:10.824Z,5.20
2019-04-27T12:51:40.442Z,3.73
2019-04-27T12:54:17.425Z,3.67
2019-04-27T12:56:51.376Z,3.23
2019-04-27T12:59:39.268Z,3.17
2019-04-27T13:02:09.169Z,3.90
2019-04-27T13:04:39.226Z,3.40
2019-04-27T13:07:09.135Z,3.17
2019-04-27T13:09:38.629Z,3.33
2019-04-27T13:12:08.244Z,3.07
2019-04-27T13:14:37.711Z,3.00
2019-04-27T13:17:07.723Z,4.50
2019-04-27T13:19:38.691Z,3.43
2019-04-27T13:22:08.460Z,2.93
2019-04-27T13:24:38.062Z,4.27
2019-04-27T13:27:07.601Z,5.00
2019-04-27T13:29:37.296Z,5.30
2019-04-27T13:32:06.815Z,5.10
2019-04-27T13:34:38.291Z,4.00
2019-04-27T13:37:26.317Z,3.83
2019-04-27T13:40:06.079Z,4.03
2019-04-27T13:42:29.339Z,3.73
2019-04-27T13:45:00.691Z,3.47
2019-04-27T13:47:37.884Z,3.47
2019-04-27T13:50:12.190Z,4.80
2019-04-27T13:52:41.732Z,3.40
2019-04-27T13:55:11.331Z,3.33
2019-04-27T13:57:50.107Z,3.27
2019-04-27T14:00:13.723Z,3.80
2019-04-27T14:02:44.125Z,2.87
2019-04-27T14:05:14.032Z,3.07
2019-04-27T14:07:43.575Z,2.83
2019-04-27T14:10:13.264Z,3.27
2019-04-27T14:12:42.802Z,2.80
2019-04-27T14:15:12.400Z,2.40
2019-04-27T14:17:41.932Z,1.70
2019-04-27T14:20:11.880Z,2.07
2019-04-27T14:22:41.583Z,1.90
2019-04-27T14:25:11.407Z,2.60
2019-04-27T14:27:41.598Z,1.67
2019-04-27T14:30:13.367Z,1.50
2019-04-27T14:32:42.891Z,2.27
2019-04-27T14:35:12.847Z,2.33
2019-04-27T14:37:42.383Z,2.13
2019-04-27T14:40:12.347Z,2.80
2019-04-27T14:42:41.886Z,2.00
2019-04-27T14:45:11.575Z,2.00
2019-04-27T14:47:41.113Z,2.80
2019-04-27T14:50:11.140Z,2.07
2019-04-27T14:52:40.939Z,2.20
2019-04-27T14:55:10.795Z,2.60
2019-04-27T14:57:40.767Z,2.70
2019-04-27T15:00:12.380Z,3.20
2019-04-27T15:02:41.924Z,2.70
2019-04-27T15:05:11.453Z,2.50
2019-04-27T15:07:47.016Z,3.00
2019-04-27T15:10:16.939Z,2.73
2019-04-27T15:12:46.843Z,2.03
2019-04-27T15:15:16.454Z,1.80
2019-04-27T15:17:45.979Z,2.00
2019-04-27T15:20:27.205Z,1.93
2019-04-27T15:22:56.851Z,2.50
2019-04-27T15:25:26.259Z,2.70
2019-04-27T15:28:01.394Z,2.90
2019-04-27T15:30:39.579Z,2.77
2019-04-27T15:33:25.157Z,3.43
2019-04-27T15:36:14.547Z,2.73
2019-04-27T15:38:51.332Z,2.87
2019-04-27T15:41:24.445Z,2.73
2019-04-27T15:43:59.624Z,2.90
2019-04-27T15:46:29.394Z,3.60
2019-04-27T15:48:58.928Z,3.70
2019-04-27T15:51:28.793Z,4.30
2019-04-27T15:53:58.779Z,5.30
2019-04-27T15:56:30.514Z,4.10
2019-04-27T15:59:01.029Z,5.23
2019-04-27T16:01:35.927Z,5.93
2019-04-27T16:04:02.507Z,6.80
2019-04-27T16:06:33.395Z,7.10
2019-04-27T16:09:04.727Z,8.20
2019-04-27T16:11:34.460Z,7.53
2019-04-27T16:14:06.738Z,8.80
2019-04-27T16:16:35.787Z,8.73
2019-04-27T16:19:10.198Z,9.00
2019-04-27T16:21:39.831Z,9.93
2019-04-27T16:24:08.528Z,10.47
2019-04-27T16:26:38.758Z,10.30
2019-04-27T16:29:09.843Z,10.27
2019-04-27T16:31:39.382Z,9.80
2019-04-27T16:34:08.984Z,9.30
2019-04-27T16:36:43.525Z,9.00
2019-04-27T16:39:10.185Z,9.33
2019-04-27T16:41:41.989Z,9.53
2019-04-27T16:44:11.319Z,9.13
2019-04-27T16:46:43.062Z,8.93
2019-04-27T16:49:14.020Z,10.73
2019-04-27T16:51:43.743Z,5.97
2019-04-27T16:54:17.699Z,3.60
2019-04-27T16:56:45.592Z,3.30
2019-04-27T16:59:36.609Z,2.67
2019-04-27T17:01:47.907Z,2.07
2019-04-27T17:04:17.363Z,2.53
2019-04-27T17:06:49.320Z,2.53
2019-04-27T17:09:18.966Z,3.07
2019-04-27T17:12:41.808Z,3.83
2019-04-27T17:14:38.709Z,4.37
2019-04-27T17:17:11.943Z,4.60
2019-04-27T17:19:43.964Z,5.40
2019-04-27T17:22:14.617Z,5.03
2019-04-27T17:24:47.371Z,5.57
2019-04-27T17:27:22.807Z,5.67
2019-04-27T17:29:57.475Z,5.47
2019-04-27T17:32:34.592Z,5.53
2019-04-27T17:35:08.751Z,5.07
2019-04-27T17:37:38.329Z,6.57
2019-04-27T17:40:09.501Z,6.40
2019-04-27T17:42:39.308Z,7.10
2019-04-27T17:45:09.311Z,7.00
2019-04-27T17:47:39.229Z,7.00
2019-04-27T17:50:09.363Z,6.20
2019-04-27T17:52:39.818Z,7.03
2019-04-27T17:55:09.785Z,6.47
2019-04-27T17:57:39.317Z,5.93
2019-04-27T18:00:10.515Z,6.17
2019-04-27T18:02:42.407Z,5.23
2019-04-27T18:05:13.708Z,6.50
2019-04-27T18:07:44.362Z,5.03
2019-04-27T18:10:22.819Z,6.50
2019-04-27T18:12:48.658Z,5.53
2019-04-27T18:15:16.867Z,6.90
2019-04-27T18:17:51.884Z,7.53
2019-04-27T18:20:29.427Z,8.40
2019-04-27T18:23:15.127Z,7.17
2019-04-27T18:25:43.654Z,6.30
2019-04-27T18:28:16.165Z,6.87
2019-04-27T18:30:49.106Z,6.53
2019-04-27T18:33:19.075Z,5.40
2019-04-27T18:35:49.059Z,5.30
2019-04-27T18:38:18.971Z,5.70
2019-04-27T18:40:48.785Z,5.60
2019-04-27T18:43:18.765Z,5.60
2019-04-27T18:45:48.714Z,5.60
2019-04-27T18:48:22.785Z,5.57
2019-04-27T18:51:09.016Z,5.67
2019-04-27T18:53:38.566Z,5.57
2019-04-27T18:56:20.820Z,5.50
2019-04-27T18:58:50.538Z,5.13
2019-04-27T19:01:20.345Z,5.57
2019-04-27T19:03:50.072Z,7.23
2019-04-27T19:06:19.596Z,6.20
2019-04-27T19:08:49.380Z,5.03
2019-04-27T19:11:19.008Z,6.67
2019-04-27T19:13:48.934Z,6.97
2019-04-27T19:16:18.781Z,7.77
2019-04-27T19:18:48.498Z,7.57
2019-04-27T19:21:20.012Z,7.23
2019-04-27T19:23:49.421Z,8.00
2019-04-27T19:26:23.596Z,8.40
2019-04-27T19:28:54.767Z,7.10
2019-04-27T19:31:29.171Z,7.77
2019-04-27T19:33:58.855Z,8.17
2019-04-27T19:36:30.419Z,7.93
2019-04-27T19:38:59.621Z,8.27
2019-04-27T19:41:29.140Z,7.60
2019-04-27T19:43:59.850Z,8.73
2019-04-27T19:46:30.509Z,9.47
2019-04-27T19:49:00.711Z,10.20
2019-04-27T19:51:30.553Z,10.07
2019-04-27T19:54:00.239Z,11.13
2019-04-27T19:56:29.785Z,9.53
2019-04-27T19:59:01.250Z,10.13
2019-04-27T20:01:40.053Z,10.50
2019-04-27T20:04:17.351Z,9.30
2019-04-27T20:06:48.499Z,10.67
2019-04-27T20:09:19.835Z,10.20
2019-04-27T20:11:49.375Z,10.93
2019-04-27T20:14:20.890Z,9.53
2019-04-27T20:16:51.969Z,8.90
2019-04-27T20:19:21.703Z,9.60
2019-04-27T20:21:51.413Z,9.40
2019-04-27T20:24:22.726Z,7.70
2019-04-27T20:26:52.155Z,8.00
2019-04-27T20:29:21.858Z,7.60
2019-04-27T20:31:51.388Z,8.80
2019-04-27T20:34:22.756Z,8.60
2019-04-27T20:36:52.882Z,9.40
2019-04-27T20:39:22.776Z,9.53
2019-04-27T20:41:52.575Z,8.70
2019-04-27T20:44:22.288Z,7.80
2019-04-27T20:46:51.752Z,7.70
2019-04-27T20:49:21.279Z,7.57
2019-04-27T20:52:01.355Z,7.53
2019-04-27T20:54:32.598Z,7.30
2019-04-27T20:57:02.112Z,8.07
2019-04-27T20:59:31.939Z,8.40
2019-04-27T21:02:19.580Z,8.40
2019-04-27T21:04:50.893Z,7.47
2019-04-27T21:07:22.331Z,7.03
2019-04-27T21:09:51.864Z,8.27
2019-04-27T21:12:22.596Z,8.90
2019-04-27T21:14:52.203Z,7.60
2019-04-27T21:17:21.875Z,7.63
2019-04-27T21:19:51.625Z,7.47
2019-04-27T21:22:21.411Z,7.13
2019-04-27T21:24:51.531Z,7.77
2019-04-27T21:27:21.658Z,7.93
2019-04-27T21:29:51.590Z,9.10
2019-04-27T21:32:22.608Z,8.30
2019-04-27T21:34:52.790Z,8.87
2019-04-27T21:37:22.624Z,8.10
2019-04-27T21:39:53.910Z,8.10
2019-04-27T21:42:23.436Z,9.47
2019-04-27T21:44:53.089Z,8.60
2019-04-27T21:47:22.677Z,9.00
2019-04-27T21:49:52.279Z,8.13
2019-04-27T21:52:23.448Z,9.03
2019-04-27T21:54:53.845Z,10.70
2019-04-27T21:57:23.379Z,8.80
2019-04-27T21:59:53.015Z,8.13
2019-04-27T22:02:22.941Z,8.40
2019-04-27T22:04:52.839Z,8.83
2019-04-27T22:07:22.355Z,8.33
2019-04-27T22:09:51.895Z,8.00
2019-04-27T22:12:21.433Z,9.10
2019-04-27T22:14:52.997Z,7.80
2019-04-27T22:17:22.347Z,8.27
2019-04-27T22:19:53.504Z,7.67
2019-04-27T22:22:27.611Z,7.50
2019-04-27T22:24:58.771Z,7.77
2019-04-27T22:27:28.228Z,8.23
2019-04-27T22:29:58.034Z,8.60
2019-04-27T22:32:27.553Z,9.30
2019-04-27T22:34:57.496Z,7.93
2019-04-27T22:37:27.087Z,7.60
2019-04-27T22:43:01.511Z,8.00
2019-04-27T22:45:32.849Z,7.60
2019-04-27T22:48:02.481Z,9.27
2019-04-27T22:50:32.095Z,8.70
2019-04-27T22:53:01.791Z,10.23
2019-04-27T22:55:31.431Z,7.97
2019-04-27T22:58:08.694Z,8.83
2019-04-27T23:00:46.046Z,8.77
2019-04-27T23:03:17.482Z,11.00
2019-04-27T23:05:47.438Z,10.67
2019-04-27T23:08:17.163Z,14.10
2019-04-27T23:10:46.858Z,13.43
2019-04-27T23:13:16.544Z,13.90
2019-04-27T23:15:47.805Z,13.40
2019-04-27T23:18:17.431Z,13.90
2019-04-27T23:20:46.967Z,12.30
2019-04-27T23:23:16.501Z,10.27
2019-04-27T23:25:46.224Z,11.67
2019-04-27T23:28:15.848Z,10.93
2019-04-27T23:30:47.100Z,11.20
2019-04-27T23:33:16.631Z,10.47
2019-04-27T23:35:46.248Z,10.23
2019-04-27T23:38:17.967Z,9.63
2019-04-27T23:40:47.157Z,10.03
2019-04-27T23:43:16.726Z,10.80
2019-04-27T23:45:46.367Z,10.20
2019-04-27T23:48:16.163Z,10.10
2019-04-27T23:50:47.532Z,9.77
2019-04-27T23:53:18.641Z,11.13
2019-04-27T23:55:48.163Z,11.77
2019-04-27T23:58:17.708Z,10.33
